PIA weather

General Wayne A. Downing Peoria International Airport
Peoria, Illinois, United States

Public forecast

Using degrees Fahrenheit for public forecast. Weather courtesy of forecast.io.

Current aviation weather report (METAR) for General Wayne A. Downing Peoria International Airport

Retrieved 2019/11/14 19:54 UTC (47 minutes ago):

KPIA 141954Z 30003KT 10SM OVC025 01/M05 A3028 RMK AO2 SLP259 T00111050

Aviation forecast (TAF) for General Wayne A. Downing Peoria International Airport

Retrieved 2019/11/14 18:42 UTC (2 hours ago):

TAF KPIA 141739Z 1418/1518 30006KT P6SM OVC025 FM142300 30005KT P6SM SCT030 FM150300 VRB03KT P6SM SKC